createdAt,value
2022-10-28T00:00:54.367Z,99377.91
2022-10-28T00:03:23.976Z,99323.19
2022-10-28T00:05:54.466Z,99365.13
2022-10-28T00:08:22.435Z,99322.88
2022-10-28T00:10:50.571Z,99298.53
2022-10-28T00:13:18.479Z,99351.97
2022-10-28T00:15:49.621Z,99373.28
2022-10-28T00:18:17.825Z,99341.75
2022-10-28T00:20:47.740Z,99296.25
2022-10-28T00:23:15.846Z,99271.91
2022-10-28T00:25:43.822Z,99287.13
2022-10-28T00:28:14.380Z,99266.03
2022-10-28T00:30:42.329Z,99271.34
2022-10-28T00:33:10.455Z,99283.69
2022-10-28T00:35:38.446Z,99261.09
2022-10-28T00:38:07.858Z,99246.59
2022-10-28T00:40:39.317Z,99262.09
2022-10-28T00:43:07.294Z,99310.53
2022-10-28T00:45:35.601Z,99311.94
2022-10-28T00:51:55.263Z,99339.94
2022-10-28T00:54:29.291Z,99328.88
2022-10-28T00:56:59.571Z,99339.94
2022-10-28T00:59:30.767Z,99330.72
2022-10-28T01:01:59.133Z,99334.34
2022-10-28T01:04:27.570Z,99367.66
2022-10-28T01:06:57.453Z,99362.31
2022-10-28T01:18:12.922Z,99374.56
2022-10-28T01:25:03.994Z,99434.81
2022-10-28T01:28:01.145Z,99446.44
2022-10-28T01:34:33.861Z,99503.31
2022-10-28T01:37:10.704Z,99513.69
2022-10-28T01:39:45.342Z,99518.47
2022-10-28T01:42:24.054Z,99524.06
2022-10-28T01:45:00.149Z,99545.38
2022-10-28T01:47:34.400Z,99545.94
2022-10-28T01:50:10.001Z,99550.41
2022-10-28T01:52:41.229Z,99575.53
2022-10-28T01:59:17.536Z,99538.66
2022-10-28T02:01:47.147Z,99550.88
2022-10-28T02:04:15.702Z,99539.81
2022-10-28T02:06:54.950Z,99558.88
2022-10-28T02:09:35.389Z,99609.63
2022-10-28T02:12:25.031Z,99590.56
2022-10-28T02:15:10.331Z,99593.63
2022-10-28T02:17:55.109Z,99614.94
2022-10-28T02:20:35.921Z,99631.22
2022-10-28T02:23:17.036Z,99606.00
2022-10-28T02:29:09.029Z,99628.44
2022-10-28T02:31:41.798Z,99633.19
2022-10-28T02:41:35.101Z,99538.38
2022-10-28T02:44:11.089Z,99516.09
2022-10-28T02:46:45.816Z,99523.66
2022-10-28T02:49:17.500Z,99524.34
2022-10-28T02:51:51.982Z,99487.38
2022-10-28T02:54:25.795Z,99503.63
2022-10-28T02:57:00.145Z,99499.84
2022-10-28T02:59:30.524Z,99526.03
2022-10-28T03:02:02.979Z,99506.47
2022-10-28T03:04:31.165Z,99550.41
2022-10-28T03:06:59.346Z,99548.03
2022-10-28T03:09:42.218Z,99585.22
2022-10-28T03:12:47.789Z,99583.53
2022-10-28T03:15:44.091Z,99568.69
2022-10-28T03:18:12.376Z,99594.91
2022-10-28T03:20:40.332Z,99617.22
2022-10-28T03:23:10.197Z,99638.38
2022-10-28T03:25:40.412Z,99629.81
2022-10-28T03:28:08.580Z,99598.41
2022-10-28T03:30:38.031Z,99620.56
2022-10-28T03:36:10.170Z,99644.41
2022-10-28T03:38:38.446Z,99681.72
2022-10-28T03:41:07.986Z,99689.16
2022-10-28T03:43:36.079Z,99707.69
2022-10-28T03:46:05.455Z,99722.28
2022-10-28T03:48:35.953Z,99737.44
2022-10-28T03:51:04.131Z,99748.78
2022-10-28T03:53:32.151Z,99729.00
2022-10-28T03:56:03.667Z,99691.84
2022-10-28T03:58:32.962Z,99744.59
2022-10-28T04:01:09.497Z,99694.06
2022-10-28T04:03:39.761Z,99734.75
2022-10-28T04:06:10.182Z,99668.84
2022-10-28T04:08:38.653Z,99737.72
2022-10-28T04:11:08.691Z,99700.81
2022-10-28T04:14:02.268Z,99692.94
2022-10-28T04:16:33.375Z,99657.03
2022-10-28T04:19:04.493Z,99673.03
2022-10-28T04:21:40.622Z,99660.09
2022-10-28T04:24:08.944Z,99660.09
2022-10-28T04:26:37.211Z,99682.69
2022-10-28T04:29:05.485Z,99661.81
2022-10-28T04:31:35.115Z,99625.34
2022-10-28T04:38:19.575Z,99581.16
2022-10-28T04:41:04.258Z,99526.34
2022-10-28T04:43:33.957Z,99502.81
2022-10-28T04:46:06.083Z,99550.72
2022-10-28T04:48:35.945Z,99534.50
2022-10-28T04:51:04.608Z,99541.91
2022-10-28T04:53:32.601Z,99521.84
2022-10-28T04:56:02.358Z,99520.16
2022-10-28T04:58:30.290Z,99510.63
2022-10-28T05:01:01.022Z,99532.50
2022-10-28T05:03:29.157Z,99493.41
2022-10-28T05:05:58.507Z,99494.13
2022-10-28T05:10:13.883Z,99468.19
2022-10-28T05:12:37.152Z,99459.06
2022-10-28T05:15:08.064Z,99457.66
2022-10-28T05:17:36.066Z,99402.19
2022-10-28T05:20:06.689Z,99413.63
2022-10-28T05:22:48.917Z,99400.44
2022-10-28T05:25:17.470Z,99359.72
2022-10-28T05:27:45.505Z,99330.91
2022-10-28T05:30:15.275Z,99332.53
2022-10-28T05:32:54.398Z,99316.13
2022-10-28T05:35:26.959Z,99344.03
2022-10-28T05:37:58.282Z,99344.16
2022-10-28T05:40:26.447Z,99340.81
2022-10-28T05:42:54.801Z,99370.75
2022-10-28T05:45:23.049Z,99362.53
2022-10-28T05:47:53.951Z,99373.56
2022-10-28T05:50:23.107Z,99337.16
2022-10-28T05:52:53.671Z,99367.69
2022-10-28T05:55:24.815Z,99379.44
2022-10-28T05:57:53.992Z,99387.28
2022-10-28T06:00:23.863Z,99397.94
2022-10-28T06:02:53.840Z,99402.28
2022-10-28T06:05:24.928Z,99390.44
2022-10-28T06:07:52.927Z,99427.78
2022-10-28T06:10:23.380Z,99352.59
2022-10-28T06:12:55.415Z,99433.53
2022-10-28T06:15:23.565Z,99394.19
2022-10-28T06:17:51.956Z,99385.66
2022-10-28T06:20:21.116Z,99399.66
2022-10-28T06:22:50.365Z,99426.25
2022-10-28T06:25:20.211Z,99445.03
2022-10-28T06:27:57.999Z,99454.28
2022-10-28T06:30:28.597Z,99412.13
2022-10-28T06:33:02.317Z,99477.00
2022-10-28T06:35:37.526Z,99450.91
2022-10-28T06:38:11.699Z,99499.56
2022-10-28T06:40:39.846Z,99484.00
2022-10-28T06:43:14.173Z,99469.41
2022-10-28T06:45:48.703Z,99493.53
2022-10-28T06:48:20.245Z,99481.63
2022-10-28T06:50:48.379Z,99477.16
2022-10-28T06:57:03.037Z,99508.41
2022-10-28T06:59:40.547Z,99546.81
2022-10-28T07:02:13.512Z,99537.81
2022-10-28T07:04:42.370Z,99517.09
2022-10-28T07:07:13.326Z,99506.47
2022-10-28T07:09:43.210Z,99510.81
2022-10-28T07:12:13.474Z,99570.91
2022-10-28T07:14:43.047Z,99596.19
2022-10-28T07:20:15.171Z,99571.78
2022-10-28T07:22:45.492Z,99605.44
2022-10-28T07:25:15.223Z,99677.78
2022-10-28T07:27:43.578Z,99626.63
2022-10-28T07:30:14.195Z,99648.91
2022-10-28T07:32:45.474Z,99581.47
2022-10-28T07:35:13.674Z,99642.19
2022-10-28T07:37:41.713Z,99613.84
2022-10-28T07:40:10.658Z,99666.72
2022-10-28T07:42:41.850Z,99669.38
2022-10-28T07:45:10.426Z,99620.59
2022-10-28T07:47:42.394Z,99640.34
2022-10-28T07:50:15.185Z,99681.72
2022-10-28T07:53:27.762Z,99656.50
2022-10-28T07:56:17.657Z,99656.19
2022-10-28T07:58:48.614Z,99707.25
2022-10-28T08:01:18.919Z,99707.41
2022-10-28T08:03:51.652Z,99769.03
2022-10-28T08:21:29.392Z,100315.88
2022-10-28T08:23:59.563Z,100346.59
2022-10-28T08:26:31.889Z,100345.75
2022-10-28T08:29:04.678Z,100341.19
2022-10-28T08:31:33.349Z,100391.09
2022-10-28T08:34:01.589Z,100380.09
2022-10-28T08:36:32.113Z,100454.88
2022-10-28T08:39:04.125Z,100487.16
2022-10-28T08:41:38.485Z,100471.66
2022-10-28T08:44:51.261Z,100524.06
2022-10-28T08:47:57.526Z,100615.63
2022-10-28T08:50:32.048Z,100602.78
2022-10-28T08:53:10.121Z,100567.16
2022-10-28T08:55:56.501Z,100589.53
2022-10-28T08:58:39.065Z,100576.78
2022-10-28T09:01:19.623Z,100663.72
2022-10-28T09:03:55.805Z,100895.41
2022-10-28T09:06:26.986Z,101198.78
2022-10-28T09:08:59.212Z,101412.88
2022-10-28T09:11:45.315Z,101459.09
2022-10-28T09:14:49.667Z,101343.00
2022-10-28T09:17:22.880Z,101422.38
2022-10-28T09:19:54.726Z,101314.22
2022-10-28T09:22:32.637Z,101430.31
2022-10-28T09:25:04.064Z,101612.16
2022-10-28T09:27:46.848Z,101822.22
2022-10-28T09:30:34.687Z,102072.47
2022-10-28T09:33:21.505Z,102120.19
2022-10-28T09:35:57.147Z,101885.81
2022-10-28T09:38:31.807Z,101539.84
2022-10-28T09:41:05.771Z,101415.03
2022-10-28T09:43:37.029Z,101299.63
2022-10-28T09:46:11.272Z,101036.66
2022-10-28T09:48:47.635Z,100995.66
2022-10-28T09:51:30.344Z,100936.63
2022-10-28T09:54:02.361Z,100819.69
2022-10-28T09:56:35.423Z,100811.34
2022-10-28T09:59:09.842Z,100780.97
2022-10-28T10:01:45.265Z,100756.72
2022-10-28T10:04:20.244Z,100758.97
2022-10-28T10:07:44.706Z,100804.56
2022-10-28T10:10:17.178Z,100838.75
2022-10-28T10:12:52.982Z,100925.53
2022-10-28T10:15:36.405Z,100936.97
2022-10-28T10:18:07.255Z,100821.00
2022-10-28T10:21:00.443Z,100798.00
2022-10-28T10:23:32.188Z,100684.50
2022-10-28T10:26:06.817Z,100671.56
2022-10-28T10:35:39.845Z,100727.34
2022-10-28T10:38:10.327Z,100744.97
2022-10-28T10:45:09.359Z,100786.03
2022-10-28T10:48:11.015Z,100765.03
2022-10-28T10:50:34.098Z,100748.56
2022-10-28T10:53:09.051Z,100756.34
2022-10-28T10:56:02.779Z,100705.38
2022-10-28T10:58:38.242Z,100737.28
2022-10-28T11:01:27.064Z,100783.19
2022-10-28T11:04:01.192Z,100737.84
2022-10-28T11:06:31.897Z,100684.22
2022-10-28T11:09:08.398Z,100652.09
2022-10-28T11:11:41.149Z,100643.09
2022-10-28T11:14:24.466Z,100597.16
2022-10-28T11:21:09.965Z,100613.66
2022-10-28T11:24:03.320Z,100629.00
2022-10-28T11:26:52.446Z,100633.50
2022-10-28T11:29:22.937Z,100628.31
2022-10-28T11:40:40.352Z,100579.41
2022-10-28T11:43:30.316Z,100567.50
2022-10-28T11:46:08.485Z,100545.22
2022-10-28T11:49:01.309Z,100561.91
2022-10-28T11:51:46.342Z,100490.56
2022-10-28T11:54:38.417Z,100518.44
2022-10-28T11:57:25.205Z,100510.56
2022-10-28T12:00:17.882Z,100547.19
2022-10-28T12:03:03.855Z,100574.56
2022-10-28T12:09:33.979Z,100550.81
2022-10-28T12:12:17.454Z,100572.13
2022-10-28T12:14:57.029Z,100582.22
2022-10-28T12:17:38.504Z,100568.31
2022-10-28T12:20:12.974Z,100615.47
2022-10-28T12:22:53.285Z,100604.22
2022-10-28T12:25:25.683Z,100579.91
2022-10-28T12:27:58.056Z,100593.50
2022-10-28T12:30:29.334Z,100559.84
2022-10-28T12:33:10.199Z,100557.72
2022-10-28T12:35:42.419Z,100587.94
2022-10-28T12:38:20.665Z,100579.41
2022-10-28T12:40:54.366Z,100527.59
2022-10-28T12:43:28.570Z,100595.19
2022-10-28T12:45:57.638Z,100581.63
2022-10-28T12:48:34.957Z,100573.34
2022-10-28T12:51:19.623Z,100530.56
2022-10-28T12:54:00.001Z,100514.78
2022-10-28T12:56:35.898Z,100448.66
2022-10-28T12:59:13.139Z,100370.16
2022-10-28T13:01:43.713Z,100395.16
2022-10-28T13:04:14.856Z,100398.13
2022-10-28T13:07:32.344Z,100430.09
2022-10-28T15:26:21.028Z,100215.09
2022-10-28T15:28:48.800Z,100208.63
2022-10-28T15:31:17.758Z,100185.13
2022-10-28T15:33:45.915Z,100194.84
2022-10-28T15:36:18.831Z,100195.69
2022-10-28T15:38:48.194Z,100191.31
2022-10-28T15:41:40.305Z,100199.91
2022-10-28T15:44:28.947Z,100178.25
2022-10-28T15:46:58.419Z,100167.69
2022-10-28T15:49:35.489Z,100167.84
2022-10-28T15:52:23.165Z,100194.00
2022-10-28T15:54:56.365Z,100210.44
2022-10-28T15:57:27.763Z,100230.59
2022-10-28T16:00:22.336Z,100200.03
2022-10-28T16:02:56.764Z,100157.16
2022-10-28T16:05:56.550Z,100166.16
2022-10-28T16:08:27.586Z,100201.03
2022-10-28T16:10:58.671Z,100201.72
2022-10-28T16:13:35.464Z,100186.97
2022-10-28T16:16:08.435Z,100171.22
2022-10-28T16:18:43.150Z,100186.53
2022-10-28T16:21:17.923Z,100169.53
2022-10-28T16:23:49.116Z,100176.56
2022-10-28T16:26:17.305Z,100223.72
2022-10-28T16:28:46.639Z,100183.59
2022-10-28T16:31:17.740Z,100152.22
2022-10-28T16:33:46.296Z,100164.47
2022-10-28T16:36:14.053Z,100187.50
2022-10-28T16:38:42.048Z,100187.25
2022-10-28T16:41:16.114Z,100163.47
2022-10-28T16:43:44.847Z,100211.44
2022-10-28T16:46:15.068Z,100237.63
2022-10-28T16:48:43.104Z,100209.75
2022-10-28T16:51:16.615Z,100180.91
2022-10-28T16:53:47.493Z,100234.25
2022-10-28T16:56:16.484Z,100189.22
2022-10-28T16:58:44.938Z,100232.56
2022-10-28T17:01:18.986Z,100195.13
2022-10-28T17:03:46.963Z,100237.78
2022-10-28T17:06:14.819Z,100224.66
2022-10-28T17:09:01.981Z,100225.53
2022-10-28T17:13:59.687Z,100187.09
2022-10-28T17:16:28.912Z,100181.19
2022-10-28T17:18:57.711Z,100207.22
2022-10-28T17:21:25.709Z,100236.94
2022-10-28T17:23:53.600Z,100244.66
2022-10-28T17:26:21.393Z,100239.47
2022-10-28T17:28:52.264Z,100239.47
2022-10-28T17:31:23.909Z,100234.25
2022-10-28T17:33:55.867Z,100248.31
2022-10-28T17:36:24.363Z,100252.69
2022-10-28T17:38:52.300Z,100226.47
2022-10-28T17:41:20.651Z,100227.09
2022-10-28T17:43:48.484Z,100236.22
2022-10-28T17:46:16.488Z,100247.47
2022-10-28T17:48:44.325Z,100233.53
2022-10-28T17:51:13.625Z,100229.16
2022-10-28T17:53:41.536Z,100219.16
2022-10-28T17:56:10.021Z,100235.25
2022-10-28T17:58:40.414Z,100232.81
2022-10-28T18:01:09.743Z,100230.88
2022-10-28T18:03:38.994Z,100224.78
2022-10-28T18:06:11.194Z,100235.34
2022-10-28T18:08:42.633Z,100248.31
2022-10-28T18:11:12.786Z,100263.38
2022-10-28T18:13:42.367Z,100253.66
2022-10-28T18:16:11.724Z,100252.69
2022-10-28T18:18:42.535Z,100267.03
2022-10-28T18:21:11.170Z,100261.53
2022-10-28T18:23:42.014Z,100251.13
2022-10-28T18:26:12.717Z,100248.47
2022-10-28T18:28:41.714Z,100245.78
2022-10-28T18:31:11.880Z,100251.97
2022-10-28T18:33:39.980Z,100250.44
2022-10-28T18:36:11.486Z,100273.66
2022-10-28T18:38:41.046Z,100286.03
2022-10-28T18:41:12.781Z,100265.19
2022-10-28T18:43:40.840Z,100251.97
2022-10-28T18:46:09.227Z,100274.06
2022-10-28T18:48:37.466Z,100246.91
2022-10-28T18:51:07.386Z,100286.03
2022-10-28T18:53:37.704Z,100278.28
2022-10-28T18:56:09.064Z,100280.13
2022-10-28T18:58:36.927Z,100295.75
2022-10-28T19:01:07.370Z,100295.59
2022-10-28T19:03:35.335Z,100315.84
2022-10-28T19:06:04.269Z,100317.69
2022-10-28T19:08:32.411Z,100309.66
2022-10-28T19:11:01.094Z,100280.81
2022-10-28T19:13:30.362Z,100293.91
2022-10-28T19:15:59.648Z,100306.16
2022-10-28T19:18:27.727Z,100266.19
2022-10-28T19:21:03.298Z,100270.41
2022-10-28T19:23:32.002Z,100269.69
2022-10-28T19:26:00.243Z,100286.16
2022-10-28T19:28:28.275Z,100266.88
2022-10-28T19:31:05.912Z,100296.56
2022-10-28T19:33:34.281Z,100316.69
2022-10-28T19:36:04.217Z,100280.97
2022-10-28T19:38:33.107Z,100274.78
2022-10-28T19:41:05.594Z,100282.78
2022-10-28T19:43:33.549Z,100262.94
2022-10-28T19:46:08.407Z,100287.16
2022-10-28T19:48:36.228Z,100302.91
2022-10-28T19:51:04.914Z,100261.69
2022-10-28T19:53:33.832Z,100284.75
2022-10-28T19:56:04.267Z,100300.94
2022-10-28T19:58:33.525Z,100309.66
2022-10-28T20:01:02.650Z,100316.69
2022-10-28T20:03:34.585Z,100296.56
2022-10-28T20:06:06.359Z,100281.81
2022-10-28T20:08:35.959Z,100286.16
2022-10-28T20:11:06.976Z,100302.91
2022-10-28T20:13:35.621Z,100281.09
2022-10-28T20:16:05.000Z,100272.38
2022-10-28T20:18:35.452Z,100252.25
2022-10-28T20:21:05.254Z,100242.66
2022-10-28T20:23:34.316Z,100228.72
2022-10-28T20:26:02.959Z,100239.69
2022-10-28T20:28:31.157Z,100274.06
2022-10-28T20:31:01.556Z,100263.50
2022-10-28T20:33:31.297Z,100233.09
2022-10-28T20:36:00.835Z,100240.13
2022-10-28T20:38:29.363Z,100241.66
2022-10-28T20:40:59.709Z,100270.53
2022-10-28T20:43:29.914Z,100248.59
2022-10-28T20:45:59.765Z,100252.25
2022-10-28T20:48:28.476Z,100268.00
2022-10-28T20:50:58.104Z,100272.38
2022-10-28T20:53:31.385Z,100269.97
2022-10-28T20:55:59.587Z,100310.78
2022-10-28T20:58:30.406Z,100274.91
2022-10-28T21:01:05.341Z,100279.41
2022-10-28T21:03:34.011Z,100269.84
2022-10-28T21:06:03.689Z,100301.22
2022-10-28T21:08:32.948Z,100307.28
2022-10-28T21:11:02.627Z,100304.88
2022-10-28T21:13:31.965Z,100318.66
2022-10-28T21:16:08.599Z,100331.91
2022-10-28T21:18:48.978Z,100344.84
2022-10-28T21:21:17.187Z,100311.91
2022-10-28T21:23:46.845Z,100325.72
2022-10-28T21:26:15.018Z,100337.09
2022-10-28T21:28:43.019Z,100311.63
2022-10-28T21:31:14.055Z,100321.47
2022-10-28T21:33:45.106Z,100315.28
2022-10-28T21:36:14.821Z,100317.81
2022-10-28T21:38:43.235Z,100328.50
2022-10-28T21:41:14.048Z,100324.00
2022-10-28T21:43:44.566Z,100333.72
2022-10-28T21:46:12.431Z,100311.91
2022-10-28T21:48:40.606Z,100326.56
2022-10-28T21:51:13.627Z,100318.94
2022-10-28T21:53:42.759Z,100324.84
2022-10-28T21:56:17.563Z,100284.63
2022-10-28T21:58:47.460Z,100296.16
2022-10-28T22:01:17.845Z,100311.63
2022-10-28T22:03:45.784Z,100323.16
2022-10-28T22:06:13.803Z,100305.59
2022-10-28T22:08:41.682Z,100315.28
2022-10-28T22:11:14.388Z,100326.56
2022-10-28T22:13:44.415Z,100332.75
2022-10-28T22:16:14.125Z,100332.75
2022-10-28T22:18:42.725Z,100307.53
2022-10-28T22:21:12.316Z,100326.97
2022-10-28T22:23:40.609Z,100304.88
2022-10-28T22:39:59.722Z,100296.16
2022-10-28T22:42:27.733Z,100289.13
2022-10-28T22:44:59.256Z,100262.94
2022-10-28T22:47:27.290Z,100273.50
2022-10-28T22:49:55.131Z,100261.22
2022-10-28T22:52:22.922Z,100251.50
2022-10-28T22:54:51.049Z,100257.84
2022-10-28T22:57:19.183Z,100226.34
2022-10-28T22:59:47.006Z,100248.13
2022-10-28T23:02:17.660Z,100266.47
2022-10-28T23:04:45.676Z,100275.31
2022-10-28T23:07:13.513Z,100250.81
2022-10-28T23:09:41.354Z,100260.97
2022-10-28T23:12:12.192Z,100238.72
2022-10-28T23:14:40.107Z,100261.22
2022-10-28T23:17:07.954Z,100235.91
2022-10-28T23:19:39.507Z,100214.81
2022-10-28T23:22:07.557Z,100203.81
2022-10-28T23:24:35.326Z,100246.59
2022-10-28T23:27:03.549Z,100236.16
2022-10-28T23:29:31.312Z,100231.66
2022-10-28T23:31:59.158Z,100206.22
2022-10-28T23:34:28.393Z,100197.50
2022-10-28T23:36:57.712Z,100200.16
2022-10-28T23:39:25.754Z,100220.16
2022-10-28T23:41:57.784Z,100208.75
2022-10-28T23:44:25.983Z,100163.59
2022-10-28T23:46:54.102Z,100150.53
2022-10-28T23:49:22.439Z,100129.41
2022-10-28T23:51:50.524Z,100136.31
2022-10-28T23:54:20.454Z,100155.72
2022-10-28T23:56:48.177Z,100132.06
2022-10-28T23:59:16.649Z,100168.66
